createdAt,value
2022-10-10T00:00:54.717Z,9.30
2022-10-10T00:03:21.552Z,8.27
2022-10-10T00:05:48.318Z,8.70
2022-10-10T00:08:15.082Z,8.63
2022-10-10T00:10:41.974Z,9.03
2022-10-10T00:13:08.730Z,7.97
2022-10-10T00:15:35.570Z,8.00
2022-10-10T00:18:03.538Z,8.80
2022-10-10T00:20:30.383Z,8.63
2022-10-10T00:22:57.155Z,8.20
2022-10-10T00:25:23.981Z,9.00
2022-10-10T00:27:50.730Z,8.93
2022-10-10T00:30:17.596Z,8.53
2022-10-10T00:32:44.366Z,8.70
2022-10-10T00:35:11.151Z,8.97
2022-10-10T00:37:37.998Z,8.87
2022-10-10T00:40:05.497Z,8.97
2022-10-10T00:42:32.284Z,8.67
2022-10-10T00:45:28.708Z,8.80
2022-10-10T00:48:15.734Z,8.40
2022-10-10T00:50:50.360Z,9.10
2022-10-10T00:53:18.400Z,9.07
2022-10-10T00:55:45.163Z,8.90
2022-10-10T00:58:11.971Z,8.73
2022-10-10T01:00:39.084Z,8.73
2022-10-10T01:03:05.875Z,8.53
2022-10-10T01:05:32.743Z,9.43
2022-10-10T01:07:59.797Z,10.03
2022-10-10T01:10:26.642Z,9.13
2022-10-10T01:12:56.471Z,10.10
2022-10-10T01:15:26.578Z,10.33
2022-10-10T01:17:56.131Z,9.57
2022-10-10T01:20:50.615Z,9.37
2022-10-10T01:23:54.433Z,10.00
2022-10-10T01:26:42.932Z,9.57
2022-10-10T01:29:22.015Z,9.60
2022-10-10T01:31:49.642Z,9.73
2022-10-10T01:34:22.319Z,10.10
2022-10-10T01:37:10.728Z,9.80
2022-10-10T01:40:09.431Z,9.67
2022-10-10T01:42:55.459Z,9.93
2022-10-10T01:45:22.634Z,10.10
2022-10-10T01:47:49.474Z,10.40
2022-10-10T01:50:18.325Z,9.87
2022-10-10T01:53:18.965Z,10.10
2022-10-10T01:56:35.550Z,10.37
2022-10-10T01:59:39.644Z,11.17
2022-10-10T02:02:15.614Z,10.77
2022-10-10T02:04:49.794Z,11.07
2022-10-10T02:07:23.724Z,10.83
2022-10-10T02:09:50.536Z,9.97
2022-10-10T02:12:17.309Z,9.80
2022-10-10T02:14:45.970Z,10.73
2022-10-10T02:17:14.567Z,10.70
2022-10-10T02:19:53.015Z,10.93
2022-10-10T02:22:19.980Z,11.13
2022-10-10T02:24:46.745Z,9.97
2022-10-10T02:27:22.074Z,9.87
2022-10-10T02:29:48.853Z,10.00
2022-10-10T02:32:22.317Z,10.30
2022-10-10T02:34:51.555Z,10.53
2022-10-10T02:37:18.329Z,9.93
2022-10-10T02:39:47.666Z,9.57
2022-10-10T02:42:15.204Z,10.67
2022-10-10T02:44:41.966Z,10.63
2022-10-10T02:47:08.802Z,9.83
2022-10-10T02:49:35.673Z,9.80
2022-10-10T02:52:02.834Z,9.97
2022-10-10T02:54:29.593Z,9.30
2022-10-10T02:56:56.359Z,9.67
2022-10-10T02:59:23.363Z,10.13
2022-10-10T03:01:50.198Z,9.50
2022-10-10T03:04:17.062Z,9.07
2022-10-10T03:06:43.902Z,8.77
2022-10-10T03:09:10.723Z,9.37
2022-10-10T03:11:37.527Z,9.07
2022-10-10T03:14:04.290Z,8.43
2022-10-10T03:16:31.125Z,9.03
2022-10-10T03:18:57.966Z,8.77
2022-10-10T03:21:24.752Z,8.70
2022-10-10T03:23:51.617Z,8.67
2022-10-10T03:26:18.366Z,8.97
2022-10-10T03:28:45.155Z,8.80
2022-10-10T03:31:12.016Z,8.57
2022-10-10T03:33:39.044Z,9.13
2022-10-10T03:36:06.150Z,9.33
2022-10-10T03:38:33.115Z,8.67
2022-10-10T03:40:59.904Z,9.10
2022-10-10T03:43:26.672Z,9.37
2022-10-10T03:45:53.474Z,9.30
2022-10-10T03:48:20.252Z,9.77
2022-10-10T03:50:47.064Z,8.87
2022-10-10T03:53:13.814Z,9.00
2022-10-10T03:55:41.577Z,8.47
2022-10-10T03:58:09.228Z,9.00
2022-10-10T04:00:36.106Z,9.17
2022-10-10T04:03:06.381Z,8.40
2022-10-10T04:05:34.869Z,9.43
2022-10-10T04:08:01.723Z,9.37
2022-10-10T04:10:28.664Z,8.70
2022-10-10T04:12:55.578Z,9.20
2022-10-10T04:15:22.362Z,8.60
2022-10-10T04:17:49.522Z,9.47
2022-10-10T04:20:16.404Z,8.47
2022-10-10T04:22:44.017Z,8.90
2022-10-10T04:25:11.546Z,9.13
2022-10-10T04:27:38.685Z,9.00
2022-10-10T04:30:06.230Z,9.00
2022-10-10T04:32:33.070Z,9.60
2022-10-10T04:34:59.862Z,10.90
2022-10-10T04:37:26.691Z,9.23
2022-10-10T04:39:53.466Z,9.90
2022-10-10T04:42:20.238Z,9.27
2022-10-10T04:44:47.043Z,9.50
2022-10-10T04:47:13.854Z,8.77
2022-10-10T04:49:42.105Z,9.00
2022-10-10T04:52:11.787Z,8.80
2022-10-10T04:54:38.606Z,9.30
2022-10-10T04:57:05.418Z,10.40
2022-10-10T04:59:32.979Z,9.77
2022-10-10T05:02:01.887Z,10.07
2022-10-10T05:04:29.032Z,10.70
2022-10-10T05:06:55.826Z,9.90
2022-10-10T05:09:22.677Z,9.47
2022-10-10T05:11:49.491Z,9.23
2022-10-10T05:14:16.271Z,10.13
2022-10-10T05:16:43.094Z,9.83
2022-10-10T05:19:09.916Z,9.93
2022-10-10T05:21:36.725Z,9.90
2022-10-10T05:24:03.669Z,9.90
2022-10-10T05:26:30.505Z,9.57
2022-10-10T05:28:57.527Z,8.43
2022-10-10T05:31:24.439Z,9.73
2022-10-10T05:33:51.279Z,10.00
2022-10-10T05:36:18.071Z,9.87
2022-10-10T05:38:44.839Z,10.57
2022-10-10T05:41:12.610Z,9.33
2022-10-10T05:43:39.486Z,11.50
2022-10-10T05:46:06.452Z,9.80
2022-10-10T05:48:33.696Z,10.57
2022-10-10T05:51:00.662Z,10.23
2022-10-10T05:53:27.914Z,11.63
2022-10-10T05:55:54.781Z,10.57
2022-10-10T05:58:21.572Z,9.97
2022-10-10T06:00:48.468Z,10.13
2022-10-10T06:03:17.120Z,11.23
2022-10-10T06:05:44.912Z,10.50
2022-10-10T06:08:12.302Z,10.70
2022-10-10T06:10:41.872Z,9.73
2022-10-10T06:13:09.102Z,11.27
2022-10-10T06:15:36.151Z,10.13
2022-10-10T06:18:03.294Z,10.53
2022-10-10T06:20:30.077Z,9.90
2022-10-10T06:22:56.949Z,10.90
2022-10-10T06:25:39.552Z,9.93
2022-10-10T06:28:07.791Z,10.57
2022-10-10T06:30:37.613Z,10.07
2022-10-10T06:33:04.423Z,10.17
2022-10-10T06:35:31.209Z,10.40
2022-10-10T06:37:58.013Z,9.77
2022-10-10T06:40:24.911Z,9.30
2022-10-10T06:42:51.895Z,11.17
2022-10-10T06:45:18.829Z,10.17
2022-10-10T06:47:45.649Z,10.03
2022-10-10T06:50:12.425Z,10.77
2022-10-10T06:52:40.765Z,10.47
2022-10-10T06:55:07.992Z,10.20
2022-10-10T06:57:34.795Z,10.10
2022-10-10T07:00:01.867Z,10.13
2022-10-10T07:02:28.724Z,9.67
2022-10-10T07:04:55.603Z,9.30
2022-10-10T07:07:22.692Z,10.27
2022-10-10T07:09:49.513Z,10.17
2022-10-10T07:12:16.346Z,10.43
2022-10-10T07:14:43.135Z,11.37
2022-10-10T07:17:09.884Z,14.43
2022-10-10T07:19:37.760Z,17.17
2022-10-10T07:22:05.078Z,16.10
2022-10-10T07:24:31.844Z,15.83
2022-10-10T07:27:04.813Z,15.57
2022-10-10T07:29:34.737Z,16.63
2022-10-10T07:32:01.556Z,16.53
2022-10-10T07:34:28.921Z,20.20
2022-10-10T07:36:55.936Z,19.37
2022-10-10T07:39:24.166Z,19.13
2022-10-10T07:41:51.899Z,19.47
2022-10-10T07:44:18.917Z,19.57
2022-10-10T07:46:45.777Z,19.67
2022-10-10T07:49:12.707Z,20.00
2022-10-10T07:51:39.496Z,20.20
2022-10-10T07:54:06.372Z,19.33
2022-10-10T07:56:33.322Z,18.97
2022-10-10T07:59:00.969Z,17.90
2022-10-10T08:01:28.007Z,18.73
2022-10-10T08:03:57.096Z,21.40
2022-10-10T08:06:23.973Z,19.13
2022-10-10T08:08:52.141Z,21.47
2022-10-10T08:11:20.604Z,21.13
2022-10-10T08:13:47.467Z,20.23
2022-10-10T08:16:14.355Z,19.17
2022-10-10T08:18:41.106Z,17.30
2022-10-10T08:21:09.442Z,17.87
2022-10-10T08:23:36.279Z,19.50
2022-10-10T08:26:05.668Z,19.50
2022-10-10T08:28:32.566Z,20.33
2022-10-10T08:31:01.970Z,20.33
2022-10-10T08:33:31.037Z,19.73
2022-10-10T08:35:57.790Z,18.83
2022-10-10T08:38:24.606Z,21.00
2022-10-10T08:40:52.306Z,19.27
2022-10-10T08:43:30.149Z,19.30
2022-10-10T08:45:57.298Z,20.37
2022-10-10T08:48:26.202Z,20.40
2022-10-10T08:50:56.978Z,20.03
2022-10-10T08:53:44.291Z,19.20
2022-10-10T08:56:18.162Z,20.10
2022-10-10T08:58:46.907Z,18.17
2022-10-10T09:01:21.879Z,18.67
2022-10-10T09:03:52.376Z,18.27
2022-10-10T09:06:22.127Z,19.20
2022-10-10T09:08:55.194Z,17.50
2022-10-10T09:11:34.899Z,17.17
2022-10-10T09:14:20.173Z,17.33
2022-10-10T09:16:49.067Z,18.33
2022-10-10T09:19:27.732Z,17.07
2022-10-10T09:21:57.397Z,16.93
2022-10-10T09:24:25.260Z,15.23
2022-10-10T09:26:55.591Z,15.47
2022-10-10T09:29:29.514Z,15.77
2022-10-10T09:32:03.755Z,14.60
2022-10-10T09:34:40.872Z,15.55
2022-10-10T09:37:29.471Z,14.23
2022-10-10T09:40:09.972Z,13.45
2022-10-10T09:42:38.715Z,13.40
2022-10-10T09:45:36.283Z,10.90
2022-10-10T09:48:03.101Z,10.63
2022-10-10T09:50:29.958Z,11.38
2022-10-10T09:52:56.765Z,10.00
2022-10-10T09:55:34.969Z,9.32
2022-10-10T09:58:29.805Z,9.52
2022-10-10T10:01:31.114Z,9.27
2022-10-10T10:04:30.408Z,9.57
2022-10-10T10:07:06.308Z,9.38
2022-10-10T10:09:33.107Z,9.18
2022-10-10T10:12:00.070Z,9.20
2022-10-10T10:14:29.718Z,8.73
2022-10-10T10:17:04.799Z,9.80
2022-10-10T10:19:33.890Z,9.27
2022-10-10T10:22:00.684Z,9.50
2022-10-10T10:24:36.718Z,8.35
2022-10-10T10:27:24.793Z,8.30
2022-10-10T10:29:53.273Z,8.25
2022-10-10T10:32:41.555Z,7.85
2022-10-10T10:35:29.166Z,7.60
2022-10-10T10:38:16.425Z,8.25
2022-10-10T10:40:54.741Z,7.70
2022-10-10T10:43:36.586Z,7.15
2022-10-10T10:46:13.095Z,8.65
2022-10-10T10:48:51.827Z,8.18
2022-10-10T10:51:37.189Z,9.00
2022-10-10T10:54:39.488Z,9.57
2022-10-10T10:58:04.786Z,10.35
2022-10-10T11:05:21.274Z,11.68
2022-10-10T11:07:18.426Z,10.45
2022-10-10T11:09:57.251Z,12.15
2022-10-10T11:12:29.507Z,15.07
2022-10-10T11:15:13.315Z,16.15
2022-10-10T11:17:53.987Z,16.05
2022-10-10T11:20:43.641Z,16.40
2022-10-10T11:23:34.588Z,16.70
2022-10-10T11:26:27.179Z,17.25
2022-10-10T11:29:05.128Z,15.13
2022-10-10T11:31:50.696Z,15.38
2022-10-10T11:34:58.044Z,14.85
2022-10-10T11:37:26.113Z,14.02
2022-10-10T11:39:58.283Z,15.48
2022-10-10T11:42:33.388Z,18.35
2022-10-10T11:45:19.080Z,18.40
2022-10-10T11:48:07.934Z,19.17
2022-10-10T11:50:36.738Z,16.83
2022-10-10T11:53:12.556Z,20.35
2022-10-10T11:56:10.497Z,22.98
2022-10-10T11:58:46.147Z,19.43
2022-10-10T12:01:20.762Z,23.02
2022-10-10T12:03:47.553Z,18.88
2022-10-10T12:06:21.707Z,21.63
2022-10-10T12:08:59.574Z,19.60
2022-10-10T12:11:35.586Z,17.17
2022-10-10T12:14:02.446Z,19.73
2022-10-10T12:16:30.901Z,17.67
2022-10-10T12:19:01.854Z,20.60
2022-10-10T12:21:29.326Z,16.43
2022-10-10T12:24:26.225Z,18.67
2022-10-10T12:26:53.006Z,19.33
2022-10-10T12:29:42.507Z,17.70
2022-10-10T12:32:15.615Z,17.83
2022-10-10T12:34:49.606Z,19.10
2022-10-10T12:37:32.493Z,17.40
2022-10-10T12:40:08.372Z,18.70
2022-10-10T12:42:47.086Z,18.63
2022-10-10T12:45:29.165Z,19.77
2022-10-10T12:48:07.066Z,20.20
2022-10-10T12:50:38.252Z,18.08
2022-10-10T12:53:16.045Z,18.88
2022-10-10T12:55:44.227Z,20.50
2022-10-10T12:58:27.742Z,16.90
2022-10-10T13:00:59.927Z,24.75
2022-10-10T13:03:42.598Z,24.98
2022-10-10T13:06:33.474Z,24.08
2022-10-10T13:09:01.311Z,24.33
2022-10-10T13:11:28.143Z,23.13
2022-10-10T13:13:56.247Z,23.05
2022-10-10T13:16:27.669Z,24.10
2022-10-10T13:18:58.840Z,24.08
2022-10-10T13:21:27.282Z,22.73
2022-10-10T13:26:52.765Z,19.07
2022-10-10T13:29:33.667Z,20.70
2022-10-10T13:32:16.282Z,17.73
2022-10-10T13:34:45.873Z,19.70
2022-10-10T13:37:14.970Z,14.23
2022-10-10T13:39:42.294Z,5.20
2022-10-10T13:42:37.272Z,5.60
2022-10-10T13:45:36.862Z,4.40
2022-10-10T13:48:10.993Z,5.20
2022-10-10T13:50:43.947Z,4.90
2022-10-10T13:53:32.086Z,5.67
2022-10-10T13:56:07.245Z,5.80
2022-10-10T13:58:42.068Z,4.43
2022-10-10T14:01:25.913Z,4.60
2022-10-10T14:03:53.323Z,4.22
2022-10-10T14:06:21.144Z,4.78
2022-10-10T14:08:48.238Z,5.20
2022-10-10T14:11:20.377Z,3.93
2022-10-10T14:13:51.400Z,3.93
2022-10-10T14:16:18.139Z,2.88
2022-10-10T14:18:45.531Z,3.60
2022-10-10T14:21:12.611Z,3.00
2022-10-10T14:23:39.501Z,3.65
2022-10-10T14:26:08.026Z,4.03
2022-10-10T14:28:36.020Z,3.70
2022-10-10T14:31:04.462Z,3.08
2022-10-10T14:33:31.737Z,2.67
2022-10-10T14:35:59.167Z,2.42
2022-10-10T14:38:26.281Z,2.80
2022-10-10T14:40:53.473Z,2.40
2022-10-10T14:43:24.790Z,3.42
2022-10-10T14:45:52.413Z,2.30
2022-10-10T14:48:19.355Z,2.38
2022-10-10T14:50:47.342Z,2.88
2022-10-10T14:53:14.587Z,3.92
2022-10-10T14:55:43.555Z,2.88
2022-10-10T14:58:19.072Z,3.03
2022-10-10T15:00:45.994Z,2.13
2022-10-10T15:03:12.921Z,2.45
2022-10-10T15:05:40.151Z,2.10
2022-10-10T15:08:07.121Z,2.97
2022-10-10T15:10:34.851Z,2.78
2022-10-10T15:13:03.119Z,3.72
2022-10-10T15:15:30.007Z,2.63
2022-10-10T15:17:59.674Z,2.72
2022-10-10T15:20:31.182Z,2.80
2022-10-10T15:23:02.672Z,3.00
2022-10-10T15:25:33.318Z,3.33
2022-10-10T15:28:01.148Z,2.50
2022-10-10T15:30:28.131Z,2.55
2022-10-10T15:32:56.181Z,2.90
2022-10-10T15:35:23.897Z,3.03
2022-10-10T15:37:50.748Z,2.45
2022-10-10T15:40:21.935Z,2.92
2022-10-10T15:42:48.999Z,2.70
2022-10-10T15:45:26.562Z,2.75
2022-10-10T15:48:02.865Z,2.63
2022-10-10T15:50:29.667Z,2.35
2022-10-10T15:52:56.585Z,2.33
2022-10-10T15:55:23.341Z,2.53
2022-10-10T15:57:50.145Z,2.42
2022-10-10T16:00:17.082Z,2.60
2022-10-10T16:02:43.862Z,2.00
2022-10-10T16:05:10.607Z,2.70
2022-10-10T16:07:46.760Z,2.53
2022-10-10T16:10:15.287Z,2.80
2022-10-10T16:12:42.218Z,3.03
2022-10-10T16:15:09.469Z,2.45
2022-10-10T16:17:36.237Z,2.38
2022-10-10T16:20:03.141Z,2.78
2022-10-10T16:22:29.971Z,2.75
2022-10-10T16:27:43.535Z,3.75
2022-10-10T16:30:10.870Z,2.60
2022-10-10T16:32:42.010Z,3.33
2022-10-10T16:35:10.197Z,2.55
2022-10-10T16:37:37.089Z,3.05
2022-10-10T16:40:04.218Z,2.97
2022-10-10T16:42:30.979Z,3.77
2022-10-10T16:44:57.774Z,2.05
2022-10-10T16:47:24.571Z,3.15
2022-10-10T16:49:51.332Z,2.80
2022-10-10T16:52:18.243Z,3.22
2022-10-10T16:54:47.771Z,2.33
2022-10-10T16:57:18.274Z,2.73
2022-10-10T16:59:45.239Z,2.85
2022-10-10T17:02:12.238Z,2.53
2022-10-10T17:04:38.998Z,2.10
2022-10-10T17:07:05.812Z,2.70
2022-10-10T17:09:32.603Z,2.10
2022-10-10T17:11:59.363Z,2.67
2022-10-10T17:14:26.214Z,3.15
2022-10-10T17:17:11.538Z,2.55
2022-10-10T17:19:39.247Z,2.33
2022-10-10T17:22:06.113Z,2.10
2022-10-10T17:24:33.162Z,2.85
2022-10-10T17:26:59.968Z,2.33
2022-10-10T17:29:26.731Z,2.10
2022-10-10T17:31:53.479Z,2.50
2022-10-10T17:34:20.323Z,2.30
2022-10-10T17:36:47.073Z,2.15
2022-10-10T17:39:13.902Z,2.37
2022-10-10T17:41:41.025Z,2.20
2022-10-10T17:44:10.609Z,4.22
2022-10-10T17:46:38.136Z,2.00
2022-10-10T17:49:06.037Z,2.40
2022-10-10T17:51:32.923Z,2.57
2022-10-10T17:54:00.619Z,2.55
2022-10-10T17:56:27.503Z,2.17
2022-10-10T17:58:54.268Z,2.00
2022-10-10T18:01:21.400Z,2.33
2022-10-10T18:03:48.523Z,1.90
2022-10-10T18:06:17.259Z,2.73
2022-10-10T18:08:45.974Z,1.97
2022-10-10T18:11:17.089Z,2.20
2022-10-10T18:13:44.138Z,2.13
2022-10-10T18:16:15.290Z,2.70
2022-10-10T18:18:46.854Z,2.25
2022-10-10T18:21:16.795Z,2.23
2022-10-10T18:23:43.646Z,2.10
2022-10-10T18:26:15.521Z,2.42
2022-10-10T18:28:42.997Z,2.58
2022-10-10T18:31:17.371Z,2.55
2022-10-10T18:33:44.941Z,2.80
2022-10-10T18:36:13.288Z,2.67
2022-10-10T18:38:40.082Z,2.10
2022-10-10T18:41:11.760Z,2.20
2022-10-10T18:43:39.795Z,2.43
2022-10-10T18:46:07.929Z,2.67
2022-10-10T18:48:35.694Z,2.85
2022-10-10T18:51:03.730Z,3.47
2022-10-10T18:53:30.868Z,2.80
2022-10-10T18:55:58.247Z,3.20
2022-10-10T18:58:25.090Z,2.10
2022-10-10T19:00:54.840Z,2.42
2022-10-10T19:03:21.679Z,2.15
2022-10-10T19:05:48.483Z,2.13
2022-10-10T19:08:15.293Z,2.40
2022-10-10T19:10:48.871Z,2.70
2022-10-10T19:13:16.361Z,2.40
2022-10-10T19:15:43.259Z,2.13
2022-10-10T19:18:10.165Z,1.98
2022-10-10T19:20:39.119Z,2.60
2022-10-10T19:23:06.278Z,2.50
2022-10-10T19:25:37.804Z,2.15
2022-10-10T19:28:05.249Z,2.53
2022-10-10T19:30:32.538Z,3.47
2022-10-10T19:32:59.589Z,2.20
2022-10-10T19:35:26.606Z,2.30
2022-10-10T19:37:53.398Z,3.08
2022-10-10T19:40:20.215Z,2.80
2022-10-10T19:42:46.976Z,2.10
2022-10-10T19:45:13.743Z,2.00
2022-10-10T19:47:40.542Z,2.30
2022-10-10T19:50:08.228Z,3.33
2022-10-10T19:52:35.011Z,2.65
2022-10-10T19:55:01.825Z,2.60
2022-10-10T19:57:28.578Z,2.17
2022-10-10T19:59:55.359Z,2.47
2022-10-10T20:02:22.146Z,3.08
2022-10-10T20:04:48.954Z,2.53
2022-10-10T20:07:15.724Z,2.53
2022-10-10T20:09:42.483Z,2.33
2022-10-10T20:12:09.377Z,2.40
2022-10-10T20:14:36.301Z,2.00
2022-10-10T20:17:03.303Z,2.58
2022-10-10T20:19:30.115Z,2.13
2022-10-10T20:21:56.932Z,2.30
2022-10-10T20:24:23.748Z,2.00
2022-10-10T20:26:50.507Z,2.10
2022-10-10T20:29:17.338Z,2.58
2022-10-10T20:31:44.173Z,1.70
2022-10-10T20:34:10.958Z,2.10
2022-10-10T20:36:39.168Z,2.40
2022-10-10T20:39:09.217Z,2.57
2022-10-10T20:41:37.472Z,2.20
2022-10-10T20:44:05.010Z,2.10
2022-10-10T20:46:36.182Z,3.30
2022-10-10T20:49:04.069Z,2.20
2022-10-10T20:51:30.910Z,2.83
2022-10-10T20:54:00.115Z,2.73
2022-10-10T20:56:27.566Z,2.37
2022-10-10T20:58:54.379Z,3.20
2022-10-10T21:01:23.263Z,2.20
2022-10-10T21:03:50.142Z,2.88
2022-10-10T21:06:24.732Z,2.17
2022-10-10T21:08:52.310Z,2.47
2022-10-10T21:11:19.229Z,2.30
2022-10-10T21:13:49.968Z,2.40
2022-10-10T21:16:17.285Z,2.43
2022-10-10T21:18:56.661Z,2.13
2022-10-10T21:21:25.367Z,2.70
2022-10-10T21:23:56.017Z,2.03
2022-10-10T21:26:24.021Z,2.50
2022-10-10T21:28:51.035Z,2.27
2022-10-10T21:31:22.925Z,2.30
2022-10-10T21:33:49.827Z,2.50
2022-10-10T21:36:17.671Z,2.53
2022-10-10T21:38:44.782Z,2.20
2022-10-10T21:41:19.078Z,1.97
2022-10-10T21:43:47.449Z,2.33
2022-10-10T21:46:16.138Z,2.30
2022-10-10T21:48:42.961Z,1.83
2022-10-10T21:51:09.883Z,2.27
2022-10-10T21:53:36.655Z,2.00
2022-10-10T21:56:05.225Z,2.25
2022-10-10T21:58:34.275Z,2.50
2022-10-10T22:01:10.800Z,2.20
2022-10-10T22:03:38.041Z,2.03
2022-10-10T22:06:06.313Z,2.00
2022-10-10T22:08:33.570Z,2.03
2022-10-10T22:11:01.690Z,2.13
2022-10-10T22:13:28.682Z,2.57
2022-10-10T22:15:55.851Z,2.03
2022-10-10T22:18:22.722Z,2.20
2022-10-10T22:20:49.514Z,1.93
2022-10-10T22:23:17.101Z,2.23
2022-10-10T22:25:45.025Z,1.83
2022-10-10T22:28:11.950Z,2.40
2022-10-10T22:30:38.770Z,1.60
2022-10-10T22:33:05.574Z,2.17
2022-10-10T22:35:32.460Z,2.07
2022-10-10T22:37:59.305Z,2.17
2022-10-10T22:40:26.230Z,2.23
2022-10-10T22:42:53.858Z,2.23
2022-10-10T22:45:20.977Z,2.73
2022-10-10T22:47:47.870Z,2.33
2022-10-10T22:50:14.650Z,1.57
2022-10-10T22:52:41.543Z,1.83
2022-10-10T22:55:09.122Z,1.87
2022-10-10T22:57:36.309Z,2.27
2022-10-10T23:00:04.418Z,1.73
2022-10-10T23:02:31.266Z,2.10
2022-10-10T23:04:59.482Z,3.10
2022-10-10T23:07:26.260Z,3.23
2022-10-10T23:09:53.206Z,3.10
2022-10-10T23:12:19.969Z,2.87
2022-10-10T23:14:47.573Z,3.27
2022-10-10T23:17:14.570Z,2.73
2022-10-10T23:19:41.334Z,3.40
2022-10-10T23:22:08.153Z,3.30
2022-10-10T23:24:37.183Z,3.33
2022-10-10T23:27:04.079Z,3.80
2022-10-10T23:29:30.854Z,2.80
2022-10-10T23:31:57.647Z,3.27
2022-10-10T23:34:24.515Z,3.10
2022-10-10T23:36:51.365Z,3.00
2022-10-10T23:39:18.178Z,3.33
2022-10-10T23:41:44.948Z,3.50
2022-10-10T23:44:11.809Z,4.03
2022-10-10T23:46:38.771Z,2.93
2022-10-10T23:49:05.562Z,2.60
2022-10-10T23:51:32.840Z,3.10
2022-10-10T23:53:59.711Z,2.30
2022-10-10T23:56:26.917Z,2.50
2022-10-10T23:58:54.745Z,3.97
